sensor_id;sensor_type;location;lat;lon;timestamp;P1;durP1;ratioP1;P2;durP2;ratioP2
19257;SDS011;9763;48.780;9.212;2023-01-19T00:03:04;3.83;;;3.43;;
19257;SDS011;9763;48.780;9.212;2023-01-19T00:06:36;4.10;;;3.70;;
19257;SDS011;9763;48.780;9.212;2023-01-19T00:10:00;5.03;;;4.53;;
19257;SDS011;9763;48.780;9.212;2023-01-19T00:13:24;4.40;;;4.00;;
19257;SDS011;9763;48.780;9.212;2023-01-19T00:16:49;4.67;;;4.20;;
19257;SDS011;9763;48.780;9.212;2023-01-19T00:20:13;4.90;;;4.30;;
19257;SDS011;9763;48.780;9.212;2023-01-19T00:23:37;4.03;;;3.33;;
19257;SDS011;9763;48.780;9.212;2023-01-19T00:27:01;3.33;;;3.03;;
19257;SDS011;9763;48.780;9.212;2023-01-19T00:30:25;5.37;;;3.67;;
19257;SDS011;9763;48.780;9.212;2023-01-19T00:33:50;4.20;;;3.33;;
19257;SDS011;9763;48.780;9.212;2023-01-19T00:37:14;5.70;;;3.60;;
19257;SDS011;9763;48.780;9.212;2023-01-19T00:40:38;5.27;;;3.60;;
19257;SDS011;9763;48.780;9.212;2023-01-19T00:44:02;4.00;;;3.60;;
19257;SDS011;9763;48.780;9.212;2023-01-19T00:47:26;4.53;;;3.90;;
19257;SDS011;9763;48.780;9.212;2023-01-19T00:50:51;4.30;;;3.47;;
19257;SDS011;9763;48.780;9.212;2023-01-19T00:54:15;4.20;;;3.80;;
19257;SDS011;9763;48.780;9.212;2023-01-19T00:57:40;3.53;;;3.23;;
19257;SDS011;9763;48.780;9.212;2023-01-19T01:01:04;5.23;;;3.27;;
19257;SDS011;9763;48.780;9.212;2023-01-19T01:04:28;3.67;;;3.17;;
19257;SDS011;9763;48.780;9.212;2023-01-19T01:07:53;3.30;;;3.00;;
19257;SDS011;9763;48.780;9.212;2023-01-19T01:11:17;4.40;;;3.27;;
19257;SDS011;9763;48.780;9.212;2023-01-19T01:14:41;3.47;;;3.10;;
19257;SDS011;9763;48.780;9.212;2023-01-19T01:18:05;3.33;;;3.03;;
19257;SDS011;9763;48.780;9.212;2023-01-19T01:21:28;3.27;;;2.97;;
19257;SDS011;9763;48.780;9.212;2023-01-19T01:24:56;3.40;;;3.10;;
19257;SDS011;9763;48.780;9.212;2023-01-19T01:28:20;3.53;;;3.10;;
19257;SDS011;9763;48.780;9.212;2023-01-19T01:31:44;4.77;;;3.37;;
19257;SDS011;9763;48.780;9.212;2023-01-19T01:35:07;5.50;;;2.97;;
19257;SDS011;9763;48.780;9.212;2023-01-19T01:38:32;4.10;;;3.57;;
19257;SDS011;9763;48.780;9.212;2023-01-19T01:41:57;4.33;;;3.93;;
19257;SDS011;9763;48.780;9.212;2023-01-19T01:45:28;3.27;;;2.97;;
19257;SDS011;9763;48.780;9.212;2023-01-19T01:48:55;3.63;;;2.80;;
19257;SDS011;9763;48.780;9.212;2023-01-19T01:52:25;4.87;;;4.07;;
19257;SDS011;9763;48.780;9.212;2023-01-19T01:55:53;3.93;;;3.53;;
19257;SDS011;9763;48.780;9.212;2023-01-19T01:59:19;4.60;;;3.60;;
19257;SDS011;9763;48.780;9.212;2023-01-19T02:02:47;4.37;;;3.63;;
19257;SDS011;9763;48.780;9.212;2023-01-19T02:06:14;4.83;;;3.80;;
19257;SDS011;9763;48.780;9.212;2023-01-19T02:09:38;4.00;;;3.50;;
19257;SDS011;9763;48.780;9.212;2023-01-19T02:13:20;3.17;;;2.87;;
19257;SDS011;9763;48.780;9.212;2023-01-19T02:16:47;3.67;;;3.03;;
19257;SDS011;9763;48.780;9.212;2023-01-19T02:20:11;4.80;;;3.30;;
19257;SDS011;9763;48.780;9.212;2023-01-19T02:23:41;6.90;;;3.63;;
19257;SDS011;9763;48.780;9.212;2023-01-19T02:27:06;4.20;;;3.10;;
19257;SDS011;9763;48.780;9.212;2023-01-19T02:30:31;3.83;;;3.43;;
19257;SDS011;9763;48.780;9.212;2023-01-19T02:33:57;3.40;;;2.77;;
19257;SDS011;9763;48.780;9.212;2023-01-19T02:37:23;4.03;;;3.63;;
19257;SDS011;9763;48.780;9.212;2023-01-19T02:40:53;3.57;;;2.80;;
19257;SDS011;9763;48.780;9.212;2023-01-19T02:44:20;3.00;;;2.70;;
19257;SDS011;9763;48.780;9.212;2023-01-19T02:47:48;2.80;;;2.60;;
19257;SDS011;9763;48.780;9.212;2023-01-19T02:51:13;3.67;;;3.07;;
19257;SDS011;9763;48.780;9.212;2023-01-19T02:54:48;4.10;;;2.77;;
19257;SDS011;9763;48.780;9.212;2023-01-19T02:58:26;3.60;;;3.00;;
19257;SDS011;9763;48.780;9.212;2023-01-19T03:01:59;3.40;;;3.10;;
19257;SDS011;9763;48.780;9.212;2023-01-19T03:05:41;5.90;;;3.07;;
19257;SDS011;9763;48.780;9.212;2023-01-19T03:09:20;2.67;;;2.40;;
19257;SDS011;9763;48.780;9.212;2023-01-19T03:12:56;3.27;;;2.97;;
19257;SDS011;9763;48.780;9.212;2023-01-19T03:16:28;3.17;;;2.63;;
19257;SDS011;9763;48.780;9.212;2023-01-19T03:20:00;3.27;;;2.63;;
19257;SDS011;9763;48.780;9.212;2023-01-19T03:23:27;3.80;;;3.37;;
19257;SDS011;9763;48.780;9.212;2023-01-19T03:26:56;2.97;;;2.70;;
19257;SDS011;9763;48.780;9.212;2023-01-19T03:30:26;3.67;;;2.93;;
19257;SDS011;9763;48.780;9.212;2023-01-19T03:33:57;3.00;;;2.77;;
19257;SDS011;9763;48.780;9.212;2023-01-19T03:37:25;5.73;;;3.70;;
19257;SDS011;9763;48.780;9.212;2023-01-19T03:40:54;4.87;;;3.60;;
19257;SDS011;9763;48.780;9.212;2023-01-19T03:44:23;4.77;;;3.17;;
19257;SDS011;9763;48.780;9.212;2023-01-19T03:47:50;4.57;;;3.10;;
19257;SDS011;9763;48.780;9.212;2023-01-19T03:51:17;3.90;;;2.47;;
19257;SDS011;9763;48.780;9.212;2023-01-19T03:54:42;3.27;;;2.77;;
19257;SDS011;9763;48.780;9.212;2023-01-19T03:58:06;3.77;;;3.37;;
19257;SDS011;9763;48.780;9.212;2023-01-19T04:01:30;4.07;;;3.20;;
19257;SDS011;9763;48.780;9.212;2023-01-19T04:04:54;4.87;;;2.77;;
19257;SDS011;9763;48.780;9.212;2023-01-19T04:08:19;4.00;;;2.70;;
19257;SDS011;9763;48.780;9.212;2023-01-19T04:11:43;2.90;;;2.60;;
19257;SDS011;9763;48.780;9.212;2023-01-19T04:15:07;5.00;;;2.63;;
19257;SDS011;9763;48.780;9.212;2023-01-19T04:18:32;4.40;;;3.70;;
19257;SDS011;9763;48.780;9.212;2023-01-19T04:21:56;2.80;;;2.47;;
19257;SDS011;9763;48.780;9.212;2023-01-19T04:25:21;3.03;;;2.60;;
19257;SDS011;9763;48.780;9.212;2023-01-19T04:28:45;3.70;;;2.23;;
19257;SDS011;9763;48.780;9.212;2023-01-19T04:32:09;6.33;;;3.53;;
19257;SDS011;9763;48.780;9.212;2023-01-19T04:35:34;3.40;;;2.87;;
19257;SDS011;9763;48.780;9.212;2023-01-19T04:38:58;7.50;;;3.00;;
19257;SDS011;9763;48.780;9.212;2023-01-19T04:42:23;3.80;;;3.13;;
19257;SDS011;9763;48.780;9.212;2023-01-19T04:45:48;4.40;;;3.77;;
19257;SDS011;9763;48.780;9.212;2023-01-19T04:49:12;3.90;;;3.40;;
19257;SDS011;9763;48.780;9.212;2023-01-19T04:52:36;2.93;;;2.67;;
19257;SDS011;9763;48.780;9.212;2023-01-19T04:56:01;3.13;;;2.83;;
19257;SDS011;9763;48.780;9.212;2023-01-19T04:59:26;3.90;;;3.30;;
19257;SDS011;9763;48.780;9.212;2023-01-19T05:02:50;5.43;;;3.10;;
19257;SDS011;9763;48.780;9.212;2023-01-19T05:06:14;3.50;;;3.00;;
19257;SDS011;9763;48.780;9.212;2023-01-19T05:09:38;3.87;;;3.07;;
19257;SDS011;9763;48.780;9.212;2023-01-19T05:13:02;5.03;;;4.07;;
19257;SDS011;9763;48.780;9.212;2023-01-19T05:16:27;4.30;;;3.50;;
19257;SDS011;9763;48.780;9.212;2023-01-19T05:19:51;3.27;;;2.57;;
19257;SDS011;9763;48.780;9.212;2023-01-19T05:23:15;3.03;;;2.70;;
19257;SDS011;9763;48.780;9.212;2023-01-19T05:26:39;4.00;;;3.37;;
19257;SDS011;9763;48.780;9.212;2023-01-19T05:30:03;7.90;;;3.70;;
19257;SDS011;9763;48.780;9.212;2023-01-19T05:33:28;4.93;;;3.80;;
19257;SDS011;9763;48.780;9.212;2023-01-19T05:36:53;4.27;;;3.87;;
19257;SDS011;9763;48.780;9.212;2023-01-19T05:40:17;3.50;;;3.00;;
19257;SDS011;9763;48.780;9.212;2023-01-19T05:43:42;5.13;;;3.60;;
19257;SDS011;9763;48.780;9.212;2023-01-19T05:47:05;4.70;;;4.20;;
19257;SDS011;9763;48.780;9.212;2023-01-19T05:50:31;4.43;;;3.83;;
19257;SDS011;9763;48.780;9.212;2023-01-19T05:53:56;4.37;;;3.30;;
19257;SDS011;9763;48.780;9.212;2023-01-19T05:57:21;4.47;;;3.70;;
19257;SDS011;9763;48.780;9.212;2023-01-19T06:00:45;5.43;;;4.00;;
19257;SDS011;9763;48.780;9.212;2023-01-19T06:04:10;5.10;;;4.17;;
19257;SDS011;9763;48.780;9.212;2023-01-19T06:07:36;6.00;;;4.10;;
19257;SDS011;9763;48.780;9.212;2023-01-19T06:10:59;4.47;;;3.97;;
19257;SDS011;9763;48.780;9.212;2023-01-19T06:14:23;5.33;;;4.20;;
19257;SDS011;9763;48.780;9.212;2023-01-19T06:17:47;5.40;;;4.33;;
19257;SDS011;9763;48.780;9.212;2023-01-19T06:21:11;5.30;;;4.37;;
19257;SDS011;9763;48.780;9.212;2023-01-19T06:24:36;5.70;;;4.70;;
19257;SDS011;9763;48.780;9.212;2023-01-19T06:28:00;3.83;;;3.20;;
19257;SDS011;9763;48.780;9.212;2023-01-19T06:31:24;5.40;;;3.70;;
19257;SDS011;9763;48.780;9.212;2023-01-19T06:34:47;4.67;;;4.27;;
19257;SDS011;9763;48.780;9.212;2023-01-19T06:38:14;3.63;;;3.33;;
19257;SDS011;9763;48.780;9.212;2023-01-19T06:41:40;5.53;;;4.13;;
19257;SDS011;9763;48.780;9.212;2023-01-19T06:45:04;4.20;;;3.80;;
19257;SDS011;9763;48.780;9.212;2023-01-19T06:48:33;4.13;;;3.40;;
19257;SDS011;9763;48.780;9.212;2023-01-19T06:51:56;4.03;;;3.63;;
19257;SDS011;9763;48.780;9.212;2023-01-19T06:55:20;4.80;;;4.30;;
19257;SDS011;9763;48.780;9.212;2023-01-19T06:58:49;4.83;;;3.87;;
19257;SDS011;9763;48.780;9.212;2023-01-19T07:02:13;4.37;;;3.97;;
19257;SDS011;9763;48.780;9.212;2023-01-19T07:05:51;4.80;;;3.77;;
19257;SDS011;9763;48.780;9.212;2023-01-19T07:09:17;4.57;;;3.83;;
19257;SDS011;9763;48.780;9.212;2023-01-19T07:12:41;3.60;;;3.30;;
19257;SDS011;9763;48.780;9.212;2023-01-19T07:16:10;6.13;;;3.90;;
19257;SDS011;9763;48.780;9.212;2023-01-19T07:19:35;3.60;;;3.07;;
19257;SDS011;9763;48.780;9.212;2023-01-19T07:22:59;3.27;;;2.97;;
19257;SDS011;9763;48.780;9.212;2023-01-19T07:26:24;4.20;;;3.10;;
19257;SDS011;9763;48.780;9.212;2023-01-19T07:29:48;4.53;;;3.37;;
19257;SDS011;9763;48.780;9.212;2023-01-19T07:33:13;4.90;;;3.30;;
19257;SDS011;9763;48.780;9.212;2023-01-19T07:36:37;3.73;;;2.90;;
19257;SDS011;9763;48.780;9.212;2023-01-19T07:40:01;2.90;;;2.70;;
19257;SDS011;9763;48.780;9.212;2023-01-19T07:43:25;3.20;;;2.60;;
19257;SDS011;9763;48.780;9.212;2023-01-19T07:46:48;3.20;;;2.57;;
19257;SDS011;9763;48.780;9.212;2023-01-19T07:50:14;2.83;;;2.47;;
19257;SDS011;9763;48.780;9.212;2023-01-19T07:53:42;2.87;;;2.67;;
19257;SDS011;9763;48.780;9.212;2023-01-19T07:57:06;3.10;;;2.77;;
19257;SDS011;9763;48.780;9.212;2023-01-19T08:00:30;2.97;;;2.67;;
19257;SDS011;9763;48.780;9.212;2023-01-19T08:03:54;2.13;;;1.93;;
19257;SDS011;9763;48.780;9.212;2023-01-19T08:07:19;6.43;;;2.70;;
19257;SDS011;9763;48.780;9.212;2023-01-19T08:10:43;3.67;;;2.43;;
19257;SDS011;9763;48.780;9.212;2023-01-19T08:14:10;4.17;;;2.10;;
19257;SDS011;9763;48.780;9.212;2023-01-19T08:17:34;3.20;;;2.60;;
19257;SDS011;9763;48.780;9.212;2023-01-19T08:20:59;3.57;;;2.60;;
19257;SDS011;9763;48.780;9.212;2023-01-19T08:24:24;2.80;;;2.40;;
19257;SDS011;9763;48.780;9.212;2023-01-19T08:27:52;3.67;;;2.77;;
19257;SDS011;9763;48.780;9.212;2023-01-19T08:31:18;3.30;;;3.00;;
19257;SDS011;9763;48.780;9.212;2023-01-19T08:34:45;3.37;;;2.83;;
19257;SDS011;9763;48.780;9.212;2023-01-19T08:38:09;3.07;;;2.80;;
19257;SDS011;9763;48.780;9.212;2023-01-19T08:41:34;3.43;;;3.13;;
19257;SDS011;9763;48.780;9.212;2023-01-19T08:44:58;3.03;;;2.70;;
19257;SDS011;9763;48.780;9.212;2023-01-19T08:48:22;3.50;;;2.37;;
19257;SDS011;9763;48.780;9.212;2023-01-19T08:51:46;3.70;;;3.07;;
19257;SDS011;9763;48.780;9.212;2023-01-19T08:55:10;3.53;;;2.90;;
19257;SDS011;9763;48.780;9.212;2023-01-19T08:58:35;3.40;;;3.10;;
19257;SDS011;9763;48.780;9.212;2023-01-19T09:01:59;3.63;;;3.30;;
19257;SDS011;9763;48.780;9.212;2023-01-19T09:05:23;3.53;;;3.20;;
19257;SDS011;9763;48.780;9.212;2023-01-19T09:08:46;4.70;;;3.27;;
19257;SDS011;9763;48.780;9.212;2023-01-19T09:12:10;3.77;;;3.20;;
19257;SDS011;9763;48.780;9.212;2023-01-19T09:15:35;5.67;;;3.63;;
19257;SDS011;9763;48.780;9.212;2023-01-19T09:19:00;3.47;;;3.17;;
19257;SDS011;9763;48.780;9.212;2023-01-19T09:22:24;7.20;;;3.43;;
19257;SDS011;9763;48.780;9.212;2023-01-19T09:25:47;7.17;;;4.33;;
19257;SDS011;9763;48.780;9.212;2023-01-19T09:29:17;3.60;;;3.30;;
19257;SDS011;9763;48.780;9.212;2023-01-19T09:32:42;4.40;;;3.70;;
19257;SDS011;9763;48.780;9.212;2023-01-19T09:36:06;6.70;;;4.00;;
19257;SDS011;9763;48.780;9.212;2023-01-19T09:39:31;7.10;;;3.60;;
19257;SDS011;9763;48.780;9.212;2023-01-19T09:42:55;4.30;;;3.70;;
19257;SDS011;9763;48.780;9.212;2023-01-19T09:46:26;5.20;;;4.20;;
19257;SDS011;9763;48.780;9.212;2023-01-19T09:50:02;4.40;;;4.00;;
19257;SDS011;9763;48.780;9.212;2023-01-19T09:53:33;4.23;;;3.80;;
19257;SDS011;9763;48.780;9.212;2023-01-19T09:57:08;4.10;;;2.90;;
19257;SDS011;9763;48.780;9.212;2023-01-19T10:00:32;4.23;;;3.83;;
19257;SDS011;9763;48.780;9.212;2023-01-19T10:04:01;4.33;;;3.93;;
19257;SDS011;9763;48.780;9.212;2023-01-19T10:07:44;4.20;;;3.80;;
19257;SDS011;9763;48.780;9.212;2023-01-19T10:11:23;4.30;;;3.60;;
19257;SDS011;9763;48.780;9.212;2023-01-19T10:15:14;4.70;;;4.00;;
19257;SDS011;9763;48.780;9.212;2023-01-19T10:18:52;3.90;;;3.60;;
19257;SDS011;9763;48.780;9.212;2023-01-19T10:22:20;4.80;;;3.73;;
19257;SDS011;9763;48.780;9.212;2023-01-19T10:25:48;4.30;;;3.90;;
19257;SDS011;9763;48.780;9.212;2023-01-19T10:29:14;6.00;;;3.40;;
19257;SDS011;9763;48.780;9.212;2023-01-19T10:32:47;6.07;;;3.60;;
19257;SDS011;9763;48.780;9.212;2023-01-19T10:36:14;4.40;;;4.03;;
19257;SDS011;9763;48.780;9.212;2023-01-19T10:39:41;4.30;;;3.90;;
19257;SDS011;9763;48.780;9.212;2023-01-19T10:47:02;4.80;;;3.70;;
19257;SDS011;9763;48.780;9.212;2023-01-19T10:50:34;5.23;;;4.03;;
19257;SDS011;9763;48.780;9.212;2023-01-19T10:54:01;5.07;;;4.10;;
19257;SDS011;9763;48.780;9.212;2023-01-19T10:57:27;3.30;;;3.00;;
19257;SDS011;9763;48.780;9.212;2023-01-19T11:00:54;3.20;;;2.70;;
19257;SDS011;9763;48.780;9.212;2023-01-19T11:04:33;5.33;;;3.40;;
19257;SDS011;9763;48.780;9.212;2023-01-19T11:07:57;6.00;;;3.70;;
19257;SDS011;9763;48.780;9.212;2023-01-19T11:11:22;4.10;;;3.70;;
19257;SDS011;9763;48.780;9.212;2023-01-19T11:14:47;3.37;;;2.93;;
19257;SDS011;9763;48.780;9.212;2023-01-19T11:18:21;5.20;;;3.70;;
19257;SDS011;9763;48.780;9.212;2023-01-19T11:21:49;4.87;;;3.60;;
19257;SDS011;9763;48.780;9.212;2023-01-19T11:25:19;4.10;;;3.07;;
19257;SDS011;9763;48.780;9.212;2023-01-19T11:28:48;3.30;;;3.00;;
19257;SDS011;9763;48.780;9.212;2023-01-19T11:32:18;3.20;;;2.90;;
19257;SDS011;9763;48.780;9.212;2023-01-19T11:35:45;4.67;;;3.53;;
19257;SDS011;9763;48.780;9.212;2023-01-19T11:39:19;3.83;;;3.43;;
19257;SDS011;9763;48.780;9.212;2023-01-19T11:42:46;4.17;;;3.77;;
19257;SDS011;9763;48.780;9.212;2023-01-19T11:46:10;3.33;;;3.03;;
19257;SDS011;9763;48.780;9.212;2023-01-19T11:49:38;3.80;;;3.40;;
19257;SDS011;9763;48.780;9.212;2023-01-19T11:53:10;5.63;;;3.10;;
19257;SDS011;9763;48.780;9.212;2023-01-19T11:56:41;4.50;;;3.30;;
19257;SDS011;9763;48.780;9.212;2023-01-19T12:00:12;11.83;;;3.30;;
19257;SDS011;9763;48.780;9.212;2023-01-19T12:03:46;4.30;;;3.30;;
19257;SDS011;9763;48.780;9.212;2023-01-19T12:07:15;4.10;;;3.80;;
19257;SDS011;9763;48.780;9.212;2023-01-19T12:10:47;3.53;;;3.23;;
19257;SDS011;9763;48.780;9.212;2023-01-19T12:14:13;6.87;;;3.50;;
19257;SDS011;9763;48.780;9.212;2023-01-19T12:17:42;4.00;;;3.27;;
19257;SDS011;9763;48.780;9.212;2023-01-19T12:21:10;2.90;;;2.63;;
19257;SDS011;9763;48.780;9.212;2023-01-19T12:24:34;3.70;;;2.90;;
19257;SDS011;9763;48.780;9.212;2023-01-19T12:28:10;3.10;;;2.80;;
19257;SDS011;9763;48.780;9.212;2023-01-19T12:31:37;3.10;;;2.70;;
19257;SDS011;9763;48.780;9.212;2023-01-19T12:35:04;4.67;;;3.77;;
19257;SDS011;9763;48.780;9.212;2023-01-19T12:38:34;3.80;;;3.40;;
19257;SDS011;9763;48.780;9.212;2023-01-19T12:42:10;5.00;;;3.23;;
19257;SDS011;9763;48.780;9.212;2023-01-19T12:45:42;3.13;;;2.83;;
19257;SDS011;9763;48.780;9.212;2023-01-19T12:49:10;3.37;;;3.07;;
19257;SDS011;9763;48.780;9.212;2023-01-19T12:52:46;3.77;;;2.90;;
19257;SDS011;9763;48.780;9.212;2023-01-19T12:56:17;3.00;;;2.73;;
19257;SDS011;9763;48.780;9.212;2023-01-19T12:59:42;3.20;;;2.90;;
19257;SDS011;9763;48.780;9.212;2023-01-19T13:07:08;4.10;;;3.03;;
19257;SDS011;9763;48.780;9.212;2023-01-19T13:14:39;2.47;;;2.27;;
19257;SDS011;9763;48.780;9.212;2023-01-19T13:18:04;3.60;;;3.20;;
19257;SDS011;9763;48.780;9.212;2023-01-19T13:21:33;2.63;;;2.43;;
19257;SDS011;9763;48.780;9.212;2023-01-19T13:25:04;3.80;;;3.40;;
19257;SDS011;9763;48.780;9.212;2023-01-19T13:28:37;3.80;;;2.23;;
19257;SDS011;9763;48.780;9.212;2023-01-19T13:32:04;4.03;;;3.63;;
19257;SDS011;9763;48.780;9.212;2023-01-19T13:35:37;3.60;;;3.20;;
19257;SDS011;9763;48.780;9.212;2023-01-19T13:39:03;4.70;;;3.60;;
19257;SDS011;9763;48.780;9.212;2023-01-19T13:42:34;3.73;;;3.43;;
19257;SDS011;9763;48.780;9.212;2023-01-19T13:46:00;4.90;;;3.17;;
19257;SDS011;9763;48.780;9.212;2023-01-19T13:49:25;6.57;;;3.80;;
19257;SDS011;9763;48.780;9.212;2023-01-19T13:52:52;4.50;;;4.10;;
19257;SDS011;9763;48.780;9.212;2023-01-19T13:56:19;4.40;;;4.00;;
19257;SDS011;9763;48.780;9.212;2023-01-19T13:59:45;5.37;;;3.47;;
19257;SDS011;9763;48.780;9.212;2023-01-19T14:03:31;3.30;;;3.00;;
19257;SDS011;9763;48.780;9.212;2023-01-19T14:06:56;5.00;;;4.60;;
19257;SDS011;9763;48.780;9.212;2023-01-19T14:10:24;4.37;;;3.97;;
19257;SDS011;9763;48.780;9.212;2023-01-19T14:13:49;4.53;;;4.13;;
19257;SDS011;9763;48.780;9.212;2023-01-19T14:17:23;5.83;;;4.10;;
19257;SDS011;9763;48.780;9.212;2023-01-19T14:20:53;5.40;;;4.90;;
19257;SDS011;9763;48.780;9.212;2023-01-19T14:24:22;6.80;;;6.13;;
19257;SDS011;9763;48.780;9.212;2023-01-19T14:27:50;5.17;;;3.93;;
19257;SDS011;9763;48.780;9.212;2023-01-19T14:31:42;5.33;;;4.10;;
19257;SDS011;9763;48.780;9.212;2023-01-19T14:35:13;11.83;;;10.20;;
19257;SDS011;9763;48.780;9.212;2023-01-19T14:38:44;8.47;;;5.13;;
19257;SDS011;9763;48.780;9.212;2023-01-19T14:42:12;5.13;;;4.37;;
19257;SDS011;9763;48.780;9.212;2023-01-19T14:45:40;4.13;;;3.73;;
19257;SDS011;9763;48.780;9.212;2023-01-19T14:49:15;4.00;;;3.60;;
19257;SDS011;9763;48.780;9.212;2023-01-19T14:52:47;4.03;;;3.73;;
19257;SDS011;9763;48.780;9.212;2023-01-19T14:56:22;7.00;;;5.80;;
19257;SDS011;9763;48.780;9.212;2023-01-19T14:59:47;8.30;;;5.80;;
19257;SDS011;9763;48.780;9.212;2023-01-19T15:03:12;10.77;;;7.20;;
19257;SDS011;9763;48.780;9.212;2023-01-19T15:06:38;6.27;;;5.30;;
19257;SDS011;9763;48.780;9.212;2023-01-19T15:10:09;6.17;;;5.07;;
19257;SDS011;9763;48.780;9.212;2023-01-19T15:13:41;5.30;;;4.10;;
19257;SDS011;9763;48.780;9.212;2023-01-19T15:17:08;6.13;;;4.27;;
19257;SDS011;9763;48.780;9.212;2023-01-19T15:20:38;4.03;;;3.63;;
19257;SDS011;9763;48.780;9.212;2023-01-19T15:24:04;9.13;;;4.20;;
19257;SDS011;9763;48.780;9.212;2023-01-19T15:27:28;4.00;;;3.60;;
19257;SDS011;9763;48.780;9.212;2023-01-19T15:30:52;4.23;;;3.83;;
19257;SDS011;9763;48.780;9.212;2023-01-19T15:34:16;4.07;;;3.70;;
19257;SDS011;9763;48.780;9.212;2023-01-19T15:37:40;4.77;;;3.73;;
19257;SDS011;9763;48.780;9.212;2023-01-19T15:41:09;7.60;;;3.60;;
19257;SDS011;9763;48.780;9.212;2023-01-19T15:44:35;4.03;;;3.47;;
19257;SDS011;9763;48.780;9.212;2023-01-19T15:47:59;4.20;;;3.70;;
19257;SDS011;9763;48.780;9.212;2023-01-19T15:51:26;6.57;;;3.40;;
19257;SDS011;9763;48.780;9.212;2023-01-19T15:54:50;4.90;;;3.63;;
19257;SDS011;9763;48.780;9.212;2023-01-19T15:58:15;4.20;;;3.80;;
19257;SDS011;9763;48.780;9.212;2023-01-19T16:01:41;4.10;;;3.70;;
19257;SDS011;9763;48.780;9.212;2023-01-19T16:05:05;4.70;;;4.03;;
19257;SDS011;9763;48.780;9.212;2023-01-19T16:08:30;3.53;;;2.80;;
19257;SDS011;9763;48.780;9.212;2023-01-19T16:11:54;3.87;;;3.47;;
19257;SDS011;9763;48.780;9.212;2023-01-19T16:15:19;3.73;;;3.43;;
19257;SDS011;9763;48.780;9.212;2023-01-19T16:18:44;3.83;;;3.50;;
19257;SDS011;9763;48.780;9.212;2023-01-19T16:22:08;4.10;;;3.70;;
19257;SDS011;9763;48.780;9.212;2023-01-19T16:25:32;5.03;;;3.40;;
19257;SDS011;9763;48.780;9.212;2023-01-19T16:28:57;5.13;;;3.10;;
19257;SDS011;9763;48.780;9.212;2023-01-19T16:32:24;4.00;;;3.60;;
19257;SDS011;9763;48.780;9.212;2023-01-19T16:35:47;5.33;;;4.33;;
19257;SDS011;9763;48.780;9.212;2023-01-19T16:39:12;3.20;;;2.90;;
19257;SDS011;9763;48.780;9.212;2023-01-19T16:42:38;4.93;;;4.30;;
19257;SDS011;9763;48.780;9.212;2023-01-19T16:46:02;7.40;;;3.90;;
19257;SDS011;9763;48.780;9.212;2023-01-19T16:49:27;5.90;;;4.00;;
19257;SDS011;9763;48.780;9.212;2023-01-19T16:52:54;6.10;;;4.17;;
19257;SDS011;9763;48.780;9.212;2023-01-19T16:56:20;6.63;;;4.50;;
19257;SDS011;9763;48.780;9.212;2023-01-19T16:59:43;6.40;;;5.33;;
19257;SDS011;9763;48.780;9.212;2023-01-19T17:03:07;5.73;;;3.50;;
19257;SDS011;9763;48.780;9.212;2023-01-19T17:06:32;6.57;;;4.10;;
19257;SDS011;9763;48.780;9.212;2023-01-19T17:09:56;5.87;;;4.67;;
19257;SDS011;9763;48.780;9.212;2023-01-19T17:13:19;6.00;;;4.47;;
19257;SDS011;9763;48.780;9.212;2023-01-19T17:16:43;5.90;;;4.50;;
19257;SDS011;9763;48.780;9.212;2023-01-19T17:20:07;6.93;;;5.20;;
19257;SDS011;9763;48.780;9.212;2023-01-19T17:23:34;10.30;;;6.60;;
19257;SDS011;9763;48.780;9.212;2023-01-19T17:26:58;12.93;;;8.90;;
19257;SDS011;9763;48.780;9.212;2023-01-19T17:30:22;15.97;;;9.30;;
19257;SDS011;9763;48.780;9.212;2023-01-19T17:33:47;11.77;;;6.60;;
19257;SDS011;9763;48.780;9.212;2023-01-19T17:37:11;9.83;;;6.67;;
19257;SDS011;9763;48.780;9.212;2023-01-19T17:40:37;6.90;;;5.23;;
19257;SDS011;9763;48.780;9.212;2023-01-19T17:44:01;9.50;;;5.90;;
19257;SDS011;9763;48.780;9.212;2023-01-19T17:47:26;9.50;;;5.00;;
19257;SDS011;9763;48.780;9.212;2023-01-19T17:50:50;7.97;;;6.00;;
19257;SDS011;9763;48.780;9.212;2023-01-19T17:54:14;8.80;;;5.20;;
19257;SDS011;9763;48.780;9.212;2023-01-19T17:57:39;6.97;;;5.90;;
19257;SDS011;9763;48.780;9.212;2023-01-19T18:01:06;7.20;;;5.40;;
19257;SDS011;9763;48.780;9.212;2023-01-19T18:04:32;12.10;;;6.60;;
19257;SDS011;9763;48.780;9.212;2023-01-19T18:07:59;9.47;;;6.57;;
19257;SDS011;9763;48.780;9.212;2023-01-19T18:11:24;8.80;;;6.97;;
19257;SDS011;9763;48.780;9.212;2023-01-19T18:14:49;8.30;;;6.63;;
19257;SDS011;9763;48.780;9.212;2023-01-19T18:18:13;7.20;;;5.83;;
19257;SDS011;9763;48.780;9.212;2023-01-19T18:21:37;7.43;;;5.30;;
19257;SDS011;9763;48.780;9.212;2023-01-19T18:25:00;7.37;;;4.47;;
19257;SDS011;9763;48.780;9.212;2023-01-19T18:28:24;4.70;;;4.20;;
19257;SDS011;9763;48.780;9.212;2023-01-19T18:31:49;3.63;;;3.27;;
19257;SDS011;9763;48.780;9.212;2023-01-19T18:35:13;4.77;;;3.37;;
19257;SDS011;9763;48.780;9.212;2023-01-19T18:38:37;4.07;;;3.70;;
19257;SDS011;9763;48.780;9.212;2023-01-19T18:42:01;4.10;;;3.70;;
19257;SDS011;9763;48.780;9.212;2023-01-19T18:45:25;4.53;;;3.40;;
19257;SDS011;9763;48.780;9.212;2023-01-19T18:48:50;4.30;;;3.27;;
19257;SDS011;9763;48.780;9.212;2023-01-19T18:52:13;4.20;;;3.50;;
19257;SDS011;9763;48.780;9.212;2023-01-19T18:55:37;3.00;;;2.70;;
19257;SDS011;9763;48.780;9.212;2023-01-19T18:59:00;4.80;;;4.40;;
19257;SDS011;9763;48.780;9.212;2023-01-19T19:02:25;4.07;;;3.27;;
19257;SDS011;9763;48.780;9.212;2023-01-19T19:05:50;4.47;;;3.67;;
19257;SDS011;9763;48.780;9.212;2023-01-19T19:09:14;3.55;;;3.25;;
19257;SDS011;9763;48.780;9.212;2023-01-19T19:12:37;4.20;;;3.27;;
19257;SDS011;9763;48.780;9.212;2023-01-19T19:16:02;3.40;;;2.80;;
19257;SDS011;9763;48.780;9.212;2023-01-19T19:19:28;4.13;;;3.10;;
19257;SDS011;9763;48.780;9.212;2023-01-19T19:22:52;3.50;;;3.20;;
19257;SDS011;9763;48.780;9.212;2023-01-19T19:26:16;4.87;;;4.47;;
19257;SDS011;9763;48.780;9.212;2023-01-19T19:29:40;3.33;;;2.90;;
19257;SDS011;9763;48.780;9.212;2023-01-19T19:33:05;4.27;;;2.93;;
19257;SDS011;9763;48.780;9.212;2023-01-19T19:36:30;3.37;;;3.07;;
19257;SDS011;9763;48.780;9.212;2023-01-19T19:39:55;5.70;;;3.37;;
19257;SDS011;9763;48.780;9.212;2023-01-19T19:43:20;3.43;;;3.13;;
19257;SDS011;9763;48.780;9.212;2023-01-19T19:46:44;7.83;;;5.30;;
19257;SDS011;9763;48.780;9.212;2023-01-19T19:50:08;8.03;;;4.83;;
19257;SDS011;9763;48.780;9.212;2023-01-19T19:53:34;6.67;;;5.37;;
19257;SDS011;9763;48.780;9.212;2023-01-19T19:57:02;6.90;;;4.93;;
19257;SDS011;9763;48.780;9.212;2023-01-19T20:00:26;4.97;;;4.00;;
19257;SDS011;9763;48.780;9.212;2023-01-19T20:03:49;4.87;;;4.07;;
19257;SDS011;9763;48.780;9.212;2023-01-19T20:07:13;6.00;;;4.77;;
19257;SDS011;9763;48.780;9.212;2023-01-19T20:10:38;7.33;;;5.50;;
19257;SDS011;9763;48.780;9.212;2023-01-19T20:14:04;11.80;;;6.30;;
19257;SDS011;9763;48.780;9.212;2023-01-19T20:17:30;6.17;;;5.47;;
19257;SDS011;9763;48.780;9.212;2023-01-19T20:20:53;7.30;;;5.57;;
19257;SDS011;9763;48.780;9.212;2023-01-19T20:24:17;7.00;;;5.90;;
19257;SDS011;9763;48.780;9.212;2023-01-19T20:27:42;6.40;;;5.80;;
19257;SDS011;9763;48.780;9.212;2023-01-19T20:31:08;7.73;;;6.00;;
19257;SDS011;9763;48.780;9.212;2023-01-19T20:34:33;6.80;;;5.00;;
19257;SDS011;9763;48.780;9.212;2023-01-19T20:37:57;6.47;;;5.20;;
19257;SDS011;9763;48.780;9.212;2023-01-19T20:41:21;5.90;;;5.27;;
19257;SDS011;9763;48.780;9.212;2023-01-19T20:44:46;8.67;;;5.80;;
19257;SDS011;9763;48.780;9.212;2023-01-19T20:48:11;8.60;;;5.00;;
19257;SDS011;9763;48.780;9.212;2023-01-19T20:51:36;7.00;;;5.20;;
19257;SDS011;9763;48.780;9.212;2023-01-19T20:55:04;5.53;;;5.03;;
19257;SDS011;9763;48.780;9.212;2023-01-19T20:58:29;5.63;;;5.00;;
19257;SDS011;9763;48.780;9.212;2023-01-19T21:01:54;7.17;;;5.07;;
19257;SDS011;9763;48.780;9.212;2023-01-19T21:05:19;5.60;;;5.10;;
19257;SDS011;9763;48.780;9.212;2023-01-19T21:08:43;6.27;;;4.53;;
19257;SDS011;9763;48.780;9.212;2023-01-19T21:12:07;11.37;;;5.47;;
19257;SDS011;9763;48.780;9.212;2023-01-19T21:15:30;5.70;;;4.53;;